Time;durP1;ratioP1;P1;durP2;ratioP2;P2;SDS_P1;SDS_P2;PMS_P1;PMS_P2;Temp;Humidity;BMP_temperature;BMP_pressure;BME280_temperature;BME280_humidity;BME280_pressure;Samples;Min_cycle;Max_cycle;Signal;HPM_P1;HPM_P2
2022/09/11 00:00:07;;;;;;;6.93;4.43;;;15.90;99.90;;;;;;4938953;29;20225;-88
2022/09/11 00:02:32;;;;;;;7.23;3.70;;;15.80;99.90;;;;;;4939060;29;20217;-88
2022/09/11 00:04:58;;;;;;;6.10;3.67;;;15.90;99.90;;;;;;4942293;28;20630;-88
2022/09/11 00:07:25;;;;;;;5.40;4.43;;;15.90;99.90;;;;;;4942599;28;20196;-88
2022/09/11 00:09:51;;;;;;;5.97;4.27;;;15.80;99.90;;;;;;4942311;28;20213;-88
2022/09/11 00:12:16;;;;;;;7.83;4.77;;;15.80;99.90;;;;;;4940158;28;20216;-88
2022/09/11 00:14:42;;;;;;;5.33;3.80;;;15.80;99.90;;;;;;4938728;28;20268;-88
2022/09/11 00:17:08;;;;;;;8.70;3.87;;;15.80;99.90;;;;;;4954707;28;20221;-87
2022/09/11 00:19:34;;;;;;;5.53;4.03;;;15.80;99.90;;;;;;4939237;28;20713;-88
2022/09/11 00:22:00;;;;;;;8.10;4.30;;;15.80;99.90;;;;;;4938428;28;20745;-88
2022/09/11 00:24:26;;;;;;;7.33;4.83;;;15.70;99.90;;;;;;4954479;28;20297;-88
2022/09/11 00:26:51;;;;;;;5.57;4.57;;;15.80;99.90;;;;;;4943951;28;20622;-88
2022/09/11 00:29:18;;;;;;;8.03;4.57;;;15.80;99.90;;;;;;4957514;28;20217;-88
2022/09/11 00:31:44;;;;;;;7.13;4.00;;;15.70;99.90;;;;;;4942195;28;20176;-88
2022/09/11 00:34:09;;;;;;;6.87;4.33;;;15.70;99.90;;;;;;4942061;28;20185;-88
2022/09/11 00:36:40;;;;;;;6.97;3.37;;;15.70;99.90;;;;;;4938185;29;20221;-88
2022/09/11 00:39:06;;;;;;;7.67;4.43;;;15.70;99.90;;;;;;4938766;29;20228;-87
2022/09/11 00:41:35;;;;;;;5.73;4.00;;;15.70;99.90;;;;;;4945900;29;20217;-87
2022/09/11 00:44:07;;;;;;;10.20;4.97;;;15.70;99.90;;;;;;4970612;28;20225;-88
2022/09/11 00:46:42;;;;;;;6.27;4.37;;;15.70;99.90;;;;;;4974283;28;20192;-88
2022/09/11 00:49:21;;;;;;;7.07;4.40;;;15.70;99.90;;;;;;4970565;28;20677;-88
2022/09/11 00:51:56;;;;;;;5.10;3.77;;;15.80;99.90;;;;;;4954092;28;20213;-88
2022/09/11 00:54:29;;;;;;;8.10;4.53;;;15.80;99.90;;;;;;4954066;28;20242;-88
2022/09/11 00:56:58;;;;;;;7.60;5.83;;;15.80;99.90;;;;;;4955299;28;20205;-88
2022/09/11 00:59:27;;;;;;;6.70;4.60;;;15.80;99.90;;;;;;4973509;28;20208;-88
2022/09/11 01:01:53;;;;;;;7.93;4.87;;;15.80;99.90;;;;;;4973483;28;20291;-88
2022/09/11 01:04:21;;;;;;;8.30;4.83;;;15.80;99.90;;;;;;4974122;28;20629;-89
2022/09/11 01:06:53;;;;;;;5.80;4.97;;;15.80;99.90;;;;;;4941219;28;20269;-89
2022/09/11 01:09:19;;;;;;;7.97;5.30;;;15.80;99.90;;;;;;4971146;28;20681;-89
2022/09/11 01:11:52;;;;;;;6.77;4.90;;;15.80;99.90;;;;;;4941319;28;20300;-89
2022/09/11 01:14:46;;;;;;;6.10;4.47;;;15.90;99.90;;;;;;4973480;28;20696;-89
2022/09/11 01:17:19;;;;;;;7.63;5.63;;;15.90;99.90;;;;;;4973481;28;20235;-88
2022/09/11 01:20:06;;;;;;;7.60;5.57;;;15.90;99.90;;;;;;4969875;28;20197;-89
2022/09/11 01:22:54;;;;;;;9.53;5.60;;;15.90;99.90;;;;;;4955319;28;20329;-88
2022/09/11 01:25:27;;;;;;;8.80;5.80;;;16.00;99.90;;;;;;4973416;28;20213;-89
2022/09/11 01:27:59;;;;;;;8.77;5.20;;;16.10;99.90;;;;;;4973015;28;20255;-88
2022/09/11 01:30:42;;;;;;;9.30;6.63;;;16.20;99.90;;;;;;4986996;28;20216;-88
2022/09/11 01:33:29;;;;;;;8.33;4.53;;;16.20;99.90;;;;;;4973016;28;20216;-88
2022/09/11 01:36:03;;;;;;;9.57;6.70;;;16.20;99.90;;;;;;4969839;28;20636;-88
2022/09/11 01:38:38;;;;;;;10.60;6.13;;;16.20;99.90;;;;;;4953523;28;20205;-88
2022/09/11 01:41:26;;;;;;;9.07;6.23;;;16.30;99.90;;;;;;4953592;28;20223;-88
2022/09/11 01:44:21;;;;;;;11.97;6.53;;;16.30;99.90;;;;;;4966163;28;20177;-88
2022/09/11 01:46:50;;;;;;;9.40;6.23;;;16.30;99.90;;;;;;4953797;28;20709;-88
2022/09/11 01:49:26;;;;;;;9.47;7.13;;;16.40;99.90;;;;;;4973684;28;20204;-88
2022/09/11 01:51:57;;;;;;;8.37;6.67;;;16.40;99.90;;;;;;4976398;28;20243;-88
2022/09/11 01:54:30;;;;;;;13.63;7.50;;;16.40;99.90;;;;;;4975038;28;20291;-88
2022/09/11 01:57:04;;;;;;;7.43;5.87;;;16.40;99.90;;;;;;4973561;28;20690;-88
2022/09/11 01:59:44;;;;;;;13.07;7.23;;;16.40;99.90;;;;;;4973149;28;20207;-88
2022/09/11 02:02:12;;;;;;;9.10;6.53;;;16.40;99.90;;;;;;4973220;28;20221;-89
2022/09/11 02:04:59;;;;;;;8.33;5.70;;;16.40;99.90;;;;;;4959010;28;20182;-88
2022/09/11 02:07:42;;;;;;;9.80;6.03;;;16.30;99.90;;;;;;4977420;28;20229;-88
2022/09/11 02:10:16;;;;;;;12.83;6.83;;;16.30;99.90;;;;;;4973584;28;20229;-88
2022/09/11 02:13:12;;;;;;;9.63;6.57;;;16.20;99.90;;;;;;4972857;28;20217;-88
2022/09/11 02:15:43;;;;;;;9.47;6.17;;;16.20;99.90;;;;;;4970146;28;20267;-88
2022/09/11 02:18:18;;;;;;;9.53;6.03;;;16.20;99.90;;;;;;4976256;28;20239;-88
2022/09/11 02:20:46;;;;;;;7.13;5.50;;;16.30;99.90;;;;;;4975817;28;20282;-88
2022/09/11 02:23:14;;;;;;;12.20;6.87;;;16.30;99.90;;;;;;4960055;28;20292;-88
2022/09/11 02:25:40;;;;;;;10.70;5.90;;;16.20;99.90;;;;;;4940978;29;20193;-88
2022/09/11 02:28:06;;;;;;;8.80;5.80;;;16.20;99.90;;;;;;4944944;28;20205;-88
2022/09/11 02:30:32;;;;;;;9.03;7.40;;;16.20;99.90;;;;;;4956361;28;20267;-88
2022/09/11 02:32:57;;;;;;;9.47;5.93;;;16.00;99.90;;;;;;4972578;28;20221;-88
2022/09/11 02:35:31;;;;;;;7.33;5.83;;;15.90;99.90;;;;;;4956441;28;20631;-88
2022/09/11 02:38:05;;;;;;;7.23;5.70;;;15.90;99.90;;;;;;4972604;28;20162;-88
2022/09/11 02:41:08;;;;;;;9.07;5.60;;;15.70;99.90;;;;;;4956932;29;20209;-88
2022/09/11 02:44:06;;;;;;;8.77;5.40;;;15.70;99.90;;;;;;4972721;28;20289;-88
2022/09/11 02:47:04;;;;;;;8.10;5.60;;;15.60;99.90;;;;;;4972322;28;20292;-88
2022/09/11 02:50:12;;;;;;;9.47;6.17;;;15.70;99.90;;;;;;4958757;28;20196;-88
2022/09/11 02:53:01;;;;;;;8.13;5.67;;;15.70;99.90;;;;;;4975006;28;20216;-89
2022/09/11 02:55:42;;;;;;;8.50;5.87;;;15.80;99.90;;;;;;4975932;28;20216;-88
2022/09/11 02:58:21;;;;;;;10.63;6.87;;;15.90;99.90;;;;;;4959191;28;20205;-88
2022/09/11 03:00:47;;;;;;;10.33;5.70;;;15.90;99.90;;;;;;4975225;28;20692;-88
2022/09/11 03:03:14;;;;;;;10.57;7.63;;;15.90;99.90;;;;;;4943117;28;20297;-88
2022/09/11 03:05:41;;;;;;;12.40;6.47;;;15.90;99.90;;;;;;4955555;28;20232;-88
2022/09/11 03:08:07;;;;;;;10.00;6.40;;;15.90;99.90;;;;;;4989504;28;20247;-88
2022/09/11 03:10:33;;;;;;;9.93;7.13;;;15.90;99.90;;;;;;4975483;28;20187;-88
2022/09/11 03:12:59;;;;;;;8.43;5.83;;;15.80;99.90;;;;;;4958982;28;20235;-89
2022/09/11 03:15:25;;;;;;;15.10;6.30;;;15.80;99.90;;;;;;4958880;28;20217;-88
2022/09/11 03:17:51;;;;;;;9.17;6.17;;;15.70;99.90;;;;;;4939727;29;20209;-88
2022/09/11 03:20:18;;;;;;;9.70;5.50;;;15.70;99.90;;;;;;4952590;28;20208;-89
2022/09/11 03:22:44;;;;;;;13.40;7.90;;;15.70;99.90;;;;;;4942955;28;20196;-88
2022/09/11 03:25:10;;;;;;;9.80;6.40;;;15.70;99.90;;;;;;4940339;29;20631;-88
2022/09/11 03:27:38;;;;;;;13.93;6.23;;;15.70;99.90;;;;;;4923648;29;20213;-88
2022/09/11 03:30:05;;;;;;;10.93;7.33;;;15.70;99.90;;;;;;4939951;29;20205;-88
2022/09/11 03:32:31;;;;;;;11.27;7.83;;;15.70;99.90;;;;;;4923865;29;20209;-88
2022/09/11 03:34:57;;;;;;;8.90;6.40;;;15.70;99.90;;;;;;4951969;28;20185;-88
2022/09/11 03:37:23;;;;;;;9.17;5.87;;;15.60;99.90;;;;;;4942533;28;20181;-88
2022/09/11 03:39:49;;;;;;;10.57;6.43;;;15.50;99.90;;;;;;4947315;28;20217;-88
2022/09/11 03:42:14;;;;;;;10.30;6.97;;;15.50;99.90;;;;;;4939227;29;20229;-88
2022/09/11 03:44:40;;;;;;;10.60;6.77;;;15.60;99.90;;;;;;4955020;28;20690;-89
2022/09/11 03:47:06;;;;;;;16.00;7.70;;;15.50;99.90;;;;;;4939349;29;20214;-88
2022/09/11 03:49:32;;;;;;;10.63;7.17;;;15.40;99.90;;;;;;4939121;28;20185;-88
2022/09/11 03:52:00;;;;;;;12.70;7.17;;;15.40;99.90;;;;;;4958114;28;20209;-88
2022/09/11 03:54:26;;;;;;;8.43;5.93;;;15.30;99.90;;;;;;4958389;28;20228;-88
2022/09/11 03:56:52;;;;;;;8.27;5.93;;;15.30;99.90;;;;;;4942486;28;20208;-88
2022/09/11 03:59:19;;;;;;;9.73;6.63;;;15.20;99.90;;;;;;4931673;29;20259;-88
2022/09/11 04:01:45;;;;;;;11.53;7.27;;;15.20;99.90;;;;;;4942124;28;20250;-88
2022/09/11 04:04:12;;;;;;;11.60;6.87;;;15.20;99.90;;;;;;4958948;28;20184;-88
2022/09/11 04:06:39;;;;;;;12.03;8.23;;;15.10;99.90;;;;;;4957874;28;20232;-88
2022/09/11 04:09:05;;;;;;;17.93;8.57;;;15.10;99.90;;;;;;4955565;28;20219;-88
2022/09/11 04:11:34;;;;;;;13.63;7.13;;;15.20;99.90;;;;;;4971934;28;20696;-88
2022/09/11 04:14:02;;;;;;;18.67;11.20;;;15.20;99.90;;;;;;4942447;28;20185;-88
2022/09/11 04:16:31;;;;;;;26.63;14.67;;;15.20;99.90;;;;;;4958506;28;20633;-89
2022/09/11 04:18:59;;;;;;;31.10;14.17;;;15.20;99.90;;;;;;4942901;28;20709;-88
2022/09/11 04:21:26;;;;;;;28.93;14.63;;;15.30;99.90;;;;;;4973622;28;20646;-88
2022/09/11 04:23:59;;;;;;;31.07;15.27;;;15.30;99.90;;;;;;4973721;28;20227;-89
2022/09/11 04:26:26;;;;;;;28.00;13.13;;;15.30;99.90;;;;;;4973793;28;20216;-89
2022/09/11 04:28:52;;;;;;;19.67;11.43;;;15.30;99.90;;;;;;4973740;28;20690;-88
2022/09/11 04:31:19;;;;;;;19.40;10.40;;;15.30;99.90;;;;;;4955266;28;20288;-88
2022/09/11 04:33:46;;;;;;;18.00;10.33;;;15.30;99.90;;;;;;4957821;28;20250;-89
2022/09/11 04:36:16;;;;;;;16.03;8.90;;;15.30;99.90;;;;;;4954448;28;20586;-89
2022/09/11 04:38:43;;;;;;;17.50;9.20;;;15.30;99.90;;;;;;4957956;28;20216;-89
2022/09/11 04:41:09;;;;;;;16.37;8.77;;;15.30;99.90;;;;;;4957898;28;20231;-89
2022/09/11 04:43:37;;;;;;;13.87;8.50;;;15.20;99.90;;;;;;4958486;28;20617;-88
2022/09/11 04:46:10;;;;;;;12.63;6.77;;;15.10;99.90;;;;;;4973348;28;20303;-89
2022/09/11 04:48:37;;;;;;;13.13;7.93;;;15.10;99.90;;;;;;4970178;28;20232;-88
2022/09/11 04:51:07;;;;;;;8.60;6.30;;;15.20;99.90;;;;;;4967763;28;20238;-88
2022/09/11 04:53:36;;;;;;;10.67;7.13;;;15.30;99.90;;;;;;4957571;28;20685;-89
2022/09/11 04:56:15;;;;;;;7.30;4.97;;;15.30;99.90;;;;;;4970050;28;20225;-89
2022/09/11 04:58:44;;;;;;;9.17;7.13;;;15.50;99.90;;;;;;4957906;28;20239;-89
2022/09/11 05:01:15;;;;;;;9.33;6.33;;;15.50;99.90;;;;;;4957866;28;20216;-89
2022/09/11 05:03:42;;;;;;;13.43;6.90;;;15.50;99.90;;;;;;4973236;28;20232;-89
2022/09/11 05:06:11;;;;;;;12.77;6.67;;;15.50;99.90;;;;;;4957291;28;20631;-89
2022/09/11 05:08:37;;;;;;;11.33;5.50;;;15.40;99.90;;;;;;4973334;28;20286;-89
2022/09/11 05:11:06;;;;;;;7.73;4.87;;;15.20;99.90;;;;;;4973166;28;20286;-89
2022/09/11 05:13:33;;;;;;;9.40;4.60;;;14.90;99.90;;;;;;4958765;28;20193;-89
2022/09/11 05:16:10;;;;;;;6.93;5.07;;;14.90;99.90;;;;;;4973492;28;20272;-88
2022/09/11 05:18:37;;;;;;;7.97;5.97;;;14.90;99.90;;;;;;4969948;28;20678;-88
2022/09/11 05:21:11;;;;;;;9.10;5.63;;;15.00;99.90;;;;;;4937816;29;20317;-88
2022/09/11 05:23:38;;;;;;;13.37;5.90;;;15.10;99.90;;;;;;4970917;28;20291;-88
2022/09/11 05:26:05;;;;;;;9.67;6.33;;;15.50;99.90;;;;;;4975560;28;20651;-88
2022/09/11 05:28:32;;;;;;;11.47;6.10;;;15.70;99.90;;;;;;4961508;28;20173;-88
2022/09/11 05:30:58;;;;;;;9.57;7.20;;;15.80;99.90;;;;;;4973784;28;20702;-89
2022/09/11 05:33:26;;;;;;;9.47;5.60;;;16.00;99.90;;;;;;4941859;29;20220;-89
2022/09/11 05:36:03;;;;;;;10.57;6.37;;;16.20;99.90;;;;;;4957683;28;20690;-88
2022/09/11 05:38:29;;;;;;;17.43;5.67;;;16.20;99.90;;;;;;4948191;28;20216;-89
2022/09/11 05:40:55;;;;;;;6.83;4.83;;;16.30;99.90;;;;;;4944154;28;20224;-89
2022/09/11 05:43:21;;;;;;;7.10;5.53;;;16.10;99.90;;;;;;4961442;28;20185;-89
2022/09/11 05:45:57;;;;;;;6.47;4.50;;;16.20;99.90;;;;;;4942004;28;20247;-89
2022/09/11 05:48:23;;;;;;;12.07;7.13;;;17.30;99.90;;;;;;4973559;28;20233;-89
2022/09/11 05:50:58;;;;;;;17.20;8.87;;;18.20;99.90;;;;;;4956842;28;20205;-89
2022/09/11 05:53:24;;;;;;;21.13;10.10;;;19.00;99.90;;;;;;4976951;28;20212;-89
2022/09/11 05:55:54;;;;;;;21.83;11.57;;;20.00;99.90;;;;;;4976242;28;20181;-89
2022/09/11 05:58:21;;;;;;;18.43;11.70;;;21.50;99.90;;;;;;4958147;28;20194;-89
2022/09/11 06:00:47;;;;;;;22.90;13.27;;;22.10;99.90;;;;;;4960694;28;20299;-89
2022/09/11 06:03:18;;;;;;;22.17;12.07;;;22.30;99.90;;;;;;4972994;28;20209;-90
2022/09/11 06:05:44;;;;;;;19.03;11.70;;;22.10;99.90;;;;;;4962803;28;20229;-89
2022/09/11 06:08:10;;;;;;;22.03;9.97;;;21.60;99.90;;;;;;4940999;29;20217;-89
2022/09/11 06:10:45;;;;;;;15.87;10.23;;;21.20;99.90;;;;;;4941931;29;20646;-89
2022/09/11 06:13:11;;;;;;;11.63;7.67;;;21.10;99.90;;;;;;4957093;29;20211;-87
2022/09/11 06:15:44;;;;;;;12.17;7.20;;;21.10;99.90;;;;;;4925276;29;20213;-89
2022/09/11 06:18:09;;;;;;;9.70;6.77;;;20.70;99.90;;;;;;4957197;28;20709;-89
2022/09/11 06:20:35;;;;;;;10.97;6.37;;;20.40;99.90;;;;;;4962210;28;20225;-89
2022/09/11 06:23:01;;;;;;;8.90;5.70;;;19.90;99.90;;;;;;4944023;28;20212;-88
2022/09/11 06:25:27;;;;;;;10.47;6.73;;;19.40;99.90;;;;;;4976333;28;20177;-88
2022/09/11 06:27:54;;;;;;;7.20;4.97;;;19.20;99.90;;;;;;4975897;28;20244;-89
2022/09/11 06:30:20;;;;;;;9.40;6.47;;;19.10;99.90;;;;;;4968488;28;20209;-88
2022/09/11 06:32:48;;;;;;;7.93;5.20;;;19.30;99.90;;;;;;4969668;28;20231;-88
2022/09/11 06:35:14;;;;;;;10.00;6.00;;;19.30;99.90;;;;;;4962616;28;20680;-88
2022/09/11 06:37:39;;;;;;;8.27;6.90;;;19.40;99.90;;;;;;4944135;28;20181;-88
2022/09/11 06:40:05;;;;;;;9.30;6.20;;;19.40;99.90;;;;;;4959400;28;20216;-88
2022/09/11 06:42:32;;;;;;;9.13;6.60;;;20.00;99.90;;;;;;4958569;28;20240;-89
2022/09/11 06:44:57;;;;;;;9.93;7.20;;;21.80;99.90;;;;;;4946229;28;20701;-89
2022/09/11 06:47:23;;;;;;;6.97;6.03;;;24.40;99.90;;;;;;4955817;28;20217;-89
2022/09/11 06:49:49;;;;;;;6.50;5.27;;;26.90;99.90;;;;;;4975103;28;20264;-88
2022/09/11 06:52:14;;;;;;;7.10;4.90;;;28.90;99.90;;;;;;4975862;28;20185;-88
2022/09/11 06:54:40;;;;;;;4.63;4.17;;;30.40;99.90;;;;;;4963355;28;20213;-88
2022/09/11 06:57:06;;;;;;;4.28;3.58;;;31.30;99.90;;;;;;4942892;28;20213;-88
2022/09/11 06:59:32;;;;;;;5.45;3.53;;;32.00;99.90;;;;;;4975237;28;20208;-88
2022/09/11 07:01:59;;;;;;;5.93;3.88;;;32.30;99.90;;;;;;4937339;28;20205;-87
2022/09/11 07:04:25;;;;;;;7.60;4.72;;;33.00;99.90;;;;;;4940741;29;20197;-89
2022/09/11 07:06:51;;;;;;;8.05;5.07;;;33.70;99.90;;;;;;4939588;29;20327;-89
2022/09/11 07:09:19;;;;;;;8.10;3.88;;;34.10;99.90;;;;;;4940009;29;20656;-90
2022/09/11 07:11:45;;;;;;;4.85;3.33;;;34.30;99.90;;;;;;4940295;29;20236;-89
2022/09/11 07:14:11;;;;;;;6.10;3.72;;;34.60;99.90;;;;;;4951353;29;20217;-91
2022/09/11 07:16:37;;;;;;;6.68;3.90;;;34.80;99.90;;;;;;4940224;29;20245;-89
2022/09/11 07:19:03;;;;;;;6.85;3.63;;;34.80;99.90;;;;;;4939340;28;20209;-89
2022/09/11 07:21:30;;;;;;;5.10;4.05;;;35.50;99.90;;;;;;4923847;29;20260;-89
2022/09/11 07:23:58;;;;;;;6.10;4.22;;;36.10;99.90;;;;;;4972273;28;20292;-89
2022/09/11 07:26:26;;;;;;;4.97;3.67;;;36.20;99.90;;;;;;4958571;28;20212;-89
2022/09/11 07:28:53;;;;;;;5.68;3.40;;;36.20;99.90;;;;;;4974755;28;20584;-89
2022/09/11 07:31:25;;;;;;;3.30;3.00;;;36.00;99.90;;;;;;4956911;28;20185;-89
2022/09/11 07:33:51;;;;;;;3.92;2.42;;;35.70;99.90;;;;;;4973802;28;20216;-89
2022/09/11 07:36:23;;;;;;;2.63;1.95;;;35.60;99.90;;;;;;4963710;28;20210;-89
2022/09/11 07:38:50;;;;;;;3.05;2.50;;;35.60;99.90;;;;;;4970378;28;20208;-89
2022/09/11 07:41:19;;;;;;;3.03;2.65;;;35.80;99.90;;;;;;4970981;28;20231;-89
2022/09/11 07:43:45;;;;;;;3.70;2.42;;;35.60;99.90;;;;;;4955025;28;20189;-90
2022/09/11 07:46:11;;;;;;;4.82;2.95;;;35.30;99.90;;;;;;4955818;29;20694;-90
2022/09/11 07:48:38;;;;;;;3.63;2.80;;;35.30;99.90;;;;;;4969182;28;20721;-90
2022/09/11 07:51:06;;;;;;;3.10;2.80;;;35.50;99.90;;;;;;4967248;28;20260;-90
2022/09/11 07:53:46;;;;;;;4.13;2.63;;;35.40;99.90;;;;;;4974427;28;20576;-90
2022/09/11 07:57:04;;;;;;;6.25;2.53;;;35.50;99.90;;;;;;4973876;28;20296;-90
2022/09/11 07:59:10;;;;;;;3.35;2.58;;;35.50;99.90;;;;;;4972044;28;20219;-89
2022/09/11 08:01:36;;;;;;;3.75;2.78;;;35.60;99.90;;;;;;4974684;28;20201;-90
2022/09/11 08:04:05;;;;;;;4.97;2.83;;;35.80;99.90;;;;;;4945914;28;20224;-90
2022/09/11 08:06:34;;;;;;;4.75;3.05;;;35.90;99.90;;;;;;4954193;28;20239;-90
2022/09/11 08:09:02;;;;;;;4.13;1.67;;;36.50;99.90;;;;;;4971558;28;20236;-93
2022/09/11 08:11:38;;;;;;;1.80;1.70;;;35.50;99.90;;;;;;4963930;28;20236;-90
2022/09/11 08:14:42;;;;;;;3.25;2.13;;;34.60;99.90;;;;;;4956612;28;20296;-90
2022/09/11 08:20:41;;;;;;;2.10;2.00;;;29.50;99.90;;;;;;4944166;28;20204;-89
2022/09/11 08:23:08;;;;;;;2.30;2.10;;;28.20;99.90;;;;;;4953908;28;20207;-88
2022/09/11 08:25:38;;;;;;;2.05;1.95;;;27.60;99.90;;;;;;4962095;28;20213;-90
2022/09/11 08:28:20;;;;;;;3.22;2.83;;;27.20;99.90;;;;;;4957509;28;20188;-88
2022/09/11 08:30:48;;;;;;;3.10;2.70;;;26.70;99.90;;;;;;4962224;28;20224;-89
2022/09/11 08:33:14;;;;;;;4.55;2.17;;;26.30;99.90;;;;;;4970773;28;20274;-90
2022/09/11 08:35:40;;;;;;;2.97;2.53;;;25.70;99.90;;;;;;4954082;28;20259;-89
2022/09/11 08:38:06;;;;;;;4.70;2.33;;;25.30;99.90;;;;;;4939673;28;20196;-89
2022/09/11 08:40:37;;;;;;;2.25;1.98;;;25.40;99.90;;;;;;4929155;28;20195;-90
2022/09/11 08:43:03;;;;;;;2.00;1.90;;;25.30;99.90;;;;;;4966997;28;20204;-89
2022/09/11 08:45:34;;;;;;;2.90;2.70;;;26.40;99.90;;;;;;4967577;28;20263;-91
2022/09/11 08:51:48;;;;;;;3.22;2.10;;;28.50;99.90;;;;;;4950173;28;20666;-89
2022/09/11 08:54:26;;;;;;;3.22;1.90;;;31.20;99.90;;;;;;4956916;28;20690;-90
2022/09/11 08:56:56;;;;;;;3.45;2.47;;;32.20;99.90;;;;;;4966764;28;20592;-91
2022/09/11 08:59:58;;;;;;;3.03;2.08;;;31.50;99.90;;;;;;4966744;28;20710;-91
2022/09/11 09:02:45;;;;;;;2.33;2.13;;;32.70;99.90;;;;;;4953068;28;20232;-91
2022/09/11 09:05:40;;;;;;;2.00;1.73;;;33.10;99.90;;;;;;4958740;28;20284;-94
2022/09/11 09:08:36;;;;;;;3.78;1.60;;;32.40;99.90;;;;;;4967455;28;20889;-91
2022/09/11 09:11:32;;;;;;;2.05;1.85;;;31.70;99.90;;;;;;4965756;28;20519;-89
2022/09/11 09:14:15;;;;;;;2.10;1.90;;;30.30;99.90;;;;;;4969498;28;20276;-90
2022/09/11 09:16:51;;;;;;;4.28;2.10;;;30.30;99.90;;;;;;4970256;28;20252;-90
2022/09/11 09:19:28;;;;;;;2.28;1.85;;;30.20;99.90;;;;;;4967832;28;20220;-90
2022/09/11 09:22:33;;;;;;;2.10;1.90;;;29.60;99.90;;;;;;4966843;28;20226;-90
2022/09/11 09:25:10;;;;;;;3.38;2.10;;;29.60;99.90;;;;;;4966811;28;20250;-90
2022/09/11 09:27:43;;;;;;;2.45;1.98;;;28.30;99.90;;;;;;4966409;28;20303;-90
2022/09/11 09:30:18;;;;;;;2.88;1.92;;;26.00;99.90;;;;;;4954313;28;20713;-90
2022/09/11 09:33:17;;;;;;;2.40;2.20;;;24.50;99.90;;;;;;4962885;28;20208;-89
2022/09/11 09:35:44;;;;;;;3.65;2.20;;;24.70;99.90;;;;;;4966313;28;20554;-89
2022/09/11 09:38:21;;;;;;;2.90;1.90;;;26.30;99.90;;;;;;4965114;28;20194;-89
2022/09/11 09:41:02;;;;;;;3.83;1.77;;;28.10;99.90;;;;;;4967012;28;20266;-90
2022/09/11 09:43:53;;;;;;;1.92;1.77;;;27.10;99.90;;;;;;4970783;28;20220;-90
2022/09/11 09:46:31;;;;;;;2.40;1.73;;;25.60;99.90;;;;;;4962761;28;20724;-89
2022/09/11 09:48:58;;;;;;;2.08;1.70;;;26.30;99.90;;;;;;4965972;28;20228;-89
2022/09/11 09:51:24;;;;;;;2.30;1.85;;;27.90;99.90;;;;;;4965211;28;20213;-89
2022/09/11 09:53:55;;;;;;;1.95;1.80;;;28.10;99.90;;;;;;4929804;28;20223;-89
2022/09/11 09:56:22;;;;;;;1.88;1.67;;;28.40;99.90;;;;;;4965957;28;20229;-89
2022/09/11 10:00:10;;;;;;;2.08;1.60;;;29.10;99.90;;;;;;4966796;28;20189;-89
2022/09/11 10:02:56;;;;;;;2.42;1.80;;;29.40;99.90;;;;;;4903590;28;20224;-89
2022/09/11 10:06:28;;;;;;;2.83;1.92;;;28.70;99.90;;;;;;4928577;28;20320;-89
2022/09/11 10:09:45;;;;;;;1.92;1.83;;;26.70;99.90;;;;;;4955604;28;20229;-90
2022/09/11 10:12:24;;;;;;;2.97;1.70;;;27.00;99.90;;;;;;4969123;28;20209;-90
2022/09/11 10:14:52;;;;;;;1.73;1.58;;;27.50;99.90;;;;;;4964743;28;20212;-89
2022/09/11 10:17:37;;;;;;;3.00;1.80;;;27.10;99.90;;;;;;4970665;28;20205;-89
2022/09/11 10:20:17;;;;;;;4.47;1.80;;;26.50;99.90;;;;;;4974199;28;20263;-89
2022/09/11 10:22:46;;;;;;;3.35;2.03;;;25.20;99.90;;;;;;4965151;28;20225;-89
2022/09/11 10:25:25;;;;;;;2.53;2.00;;;24.40;99.90;;;;;;4953869;28;20299;-89
2022/09/11 10:27:58;;;;;;;2.85;2.40;;;25.20;99.90;;;;;;4964319;28;20192;-89
2022/09/11 10:30:30;;;;;;;2.72;2.38;;;25.50;99.90;;;;;;4968820;28;20240;-89
2022/09/11 10:32:58;;;;;;;1.77;1.38;;;27.20;99.90;;;;;;4971935;28;20271;-89
2022/09/11 10:35:29;;;;;;;3.22;2.20;;;28.60;99.90;;;;;;4957308;28;20215;-89
2022/09/11 10:38:17;;;;;;;3.17;2.05;;;29.30;99.90;;;;;;4960037;28;20282;-89
2022/09/11 10:41:20;;;;;;;1.75;1.65;;;29.50;99.90;;;;;;4981790;28;20216;-90
2022/09/11 10:44:02;;;;;;;2.00;1.77;;;28.90;99.90;;;;;;4959733;28;20216;-93
2022/09/11 10:46:32;;;;;;;3.22;2.38;;;29.30;99.90;;;;;;4973755;28;20213;-90
2022/09/11 10:49:15;;;;;;;2.55;1.52;;;29.50;99.90;;;;;;4974789;28;20223;-93
2022/09/11 10:51:42;;;;;;;2.53;1.70;;;29.60;99.90;;;;;;4972742;28;20664;-89
2022/09/11 10:54:33;;;;;;;2.72;1.67;;;29.90;99.90;;;;;;4970001;28;20756;-90
2022/09/11 10:57:36;;;;;;;1.75;1.55;;;30.10;99.90;;;;;;4964670;28;20624;-91
2022/09/11 11:00:07;;;;;;;1.80;1.70;;;29.50;99.90;;;;;;4985793;28;20768;-90
2022/09/11 11:03:04;;;;;;;1.80;1.70;;;28.90;99.90;;;;;;4968468;28;20275;-92
2022/09/11 11:05:43;;;;;;;2.55;1.48;;;29.50;99.90;;;;;;4971134;28;20860;-91
2022/09/11 11:08:23;;;;;;;2.03;1.60;;;30.20;99.90;;;;;;4967654;28;20236;-92
2022/09/11 11:11:13;;;;;;;2.05;1.55;;;29.30;99.90;;;;;;4966201;28;20224;-92
2022/09/11 11:13:59;;;;;;;1.88;1.63;;;29.50;99.90;;;;;;4968806;28;20642;-93
2022/09/11 11:16:40;;;;;;;8.40;2.45;;;29.70;99.90;;;;;;4966336;28;20216;-93
2022/09/11 11:19:27;;;;;;;3.10;1.83;;;30.10;99.90;;;;;;4968829;28;20188;-93
2022/09/11 11:22:16;;;;;;;1.90;1.80;;;29.60;99.90;;;;;;4971792;28;20212;-94
2022/09/11 11:24:57;;;;;;;4.13;1.60;;;30.20;99.90;;;;;;4960599;28;20560;-95
2022/09/11 11:27:56;;;;;;;2.47;1.90;;;29.70;99.90;;;;;;4970326;28;20252;-90
2022/09/11 11:30:37;;;;;;;2.35;1.73;;;30.00;99.90;;;;;;4986904;28;20205;-90
2022/09/11 11:33:05;;;;;;;3.92;1.80;;;29.90;99.90;;;;;;4972445;28;20212;-90
2022/09/11 11:35:56;;;;;;;2.25;1.95;;;29.90;99.90;;;;;;4983489;28;20225;-90
2022/09/11 11:38:50;;;;;;;3.10;1.90;;;29.30;99.90;;;;;;4988089;28;20225;-91
2022/09/11 11:41:22;;;;;;;1.65;1.55;;;29.20;99.90;;;;;;4968491;28;20216;-90
2022/09/11 11:43:54;;;;;;;2.45;1.80;;;27.20;99.90;;;;;;4970518;28;20789;-90
2022/09/11 11:46:24;;;;;;;2.20;1.58;;;26.50;99.90;;;;;;4965772;28;20756;-91
2022/09/11 11:48:56;;;;;;;1.85;1.67;;;25.40;99.90;;;;;;4966888;28;20185;-89
2022/09/11 11:51:26;;;;;;;3.40;2.13;;;25.90;99.90;;;;;;4972900;28;20185;-90
2022/09/11 11:54:18;;;;;;;2.13;1.83;;;26.00;99.90;;;;;;4969654;28;20309;-90
2022/09/11 11:56:56;;;;;;;2.00;1.75;;;26.40;99.90;;;;;;4966561;28;20213;-90
2022/09/11 11:59:34;;;;;;;1.75;1.65;;;25.60;99.90;;;;;;4972051;28;20234;-90
2022/09/11 12:02:28;;;;;;;2.85;1.40;;;25.50;99.90;;;;;;4968168;28;20263;-91
2022/09/11 12:05:16;;;;;;;2.00;1.80;;;25.20;99.90;;;;;;4963693;28;20632;-91
2022/09/11 12:07:42;;;;;;;1.65;1.52;;;26.00;99.90;;;;;;4971107;28;20232;-90
2022/09/11 12:10:37;;;;;;;1.95;1.75;;;25.40;99.90;;;;;;4954562;28;20192;-90
2022/09/11 12:13:15;;;;;;;2.35;1.90;;;25.30;99.90;;;;;;4969866;28;20189;-90
2022/09/11 12:16:20;;;;;;;4.35;2.20;;;24.70;99.90;;;;;;4971496;28;20192;-89
2022/09/11 12:19:12;;;;;;;1.83;1.73;;;24.00;99.90;;;;;;4963181;28;20225;-91
2022/09/11 12:21:40;;;;;;;3.05;1.83;;;24.00;99.90;;;;;;4964791;28;20212;-90
2022/09/11 12:24:05;;;;;;;2.03;1.70;;;23.50;99.90;;;;;;4971694;28;20224;-90
2022/09/11 12:26:31;;;;;;;1.65;1.55;;;23.20;99.90;;;;;;4971362;28;20208;-90
2022/09/11 12:29:13;;;;;;;2.05;1.83;;;23.50;99.90;;;;;;4955613;28;20227;-91
2022/09/11 12:31:51;;;;;;;2.47;2.00;;;23.50;99.90;;;;;;4962015;28;20682;-91
2022/09/11 12:34:22;;;;;;;1.65;1.52;;;23.40;99.90;;;;;;4967831;28;20217;-91
2022/09/11 12:37:02;;;;;;;7.85;2.03;;;23.80;99.90;;;;;;4969163;28;20619;-93
2022/09/11 12:39:38;;;;;;;3.33;1.75;;;23.90;99.90;;;;;;4970257;28;20550;-95
2022/09/11 12:42:22;;;;;;;1.58;1.48;;;23.90;99.90;;;;;;4969612;28;20220;-93
2022/09/11 12:44:47;;;;;;;2.30;1.60;;;23.70;99.90;;;;;;4966778;28;20227;-91
2022/09/11 12:47:27;;;;;;;2.22;1.80;;;23.70;99.90;;;;;;4968983;28;20201;-91
2022/09/11 12:50:21;;;;;;;3.85;1.75;;;23.70;99.90;;;;;;4969983;28;20792;-88
2022/09/11 12:52:53;;;;;;;3.72;2.17;;;23.60;99.90;;;;;;4970009;28;20295;-88
2022/09/11 12:55:42;;;;;;;3.20;1.42;;;23.60;99.90;;;;;;4974203;28;20300;-90
2022/09/11 12:58:17;;;;;;;3.40;1.65;;;23.30;99.90;;;;;;4965201;28;20701;-90
2022/09/11 13:00:46;;;;;;;1.88;1.70;;;23.50;99.90;;;;;;4968685;28;20707;-89
2022/09/11 13:03:20;;;;;;;2.22;2.03;;;23.90;99.90;;;;;;4954307;28;20217;-90
2022/09/11 13:05:58;;;;;;;2.00;1.80;;;23.70;99.90;;;;;;4964982;28;20212;-89
2022/09/11 13:08:28;;;;;;;2.55;2.10;;;23.60;99.90;;;;;;4983077;28;20211;-89
2022/09/11 13:11:32;;;;;;;1.45;1.35;;;23.50;99.90;;;;;;4970539;28;20224;-89
2022/09/11 13:13:58;;;;;;;1.90;1.80;;;23.50;99.90;;;;;;4967366;28;20703;-89
2022/09/11 13:16:35;;;;;;;2.05;1.75;;;23.30;99.90;;;;;;4969043;28;20232;-89
2022/09/11 13:19:15;;;;;;;2.08;1.88;;;23.40;99.90;;;;;;4987107;28;20278;-90
2022/09/11 13:21:44;;;;;;;1.83;1.70;;;23.40;99.90;;;;;;4975705;28;20203;-89
2022/09/11 13:24:31;;;;;;;2.33;1.80;;;23.60;99.90;;;;;;4971326;28;20231;-89